sensor_id;sensor_type;location;lat;lon;timestamp;pressure;altitude;pressure_sealevel;temperature;humidity
38038;BME280;23843;51.320;12.340;2023-04-09T00:01:59;101389.84;;;4.71;100.00
38038;BME280;23843;51.320;12.340;2023-04-09T00:04:24;101379.34;;;4.71;100.00
38038;BME280;23843;51.320;12.340;2023-04-09T00:06:50;101380.19;;;4.72;100.00
38038;BME280;23843;51.320;12.340;2023-04-09T00:09:15;101380.19;;;4.72;100.00
38038;BME280;23843;51.320;12.340;2023-04-09T00:11:41;101387.16;;;4.75;100.00
38038;BME280;23843;51.320;12.340;2023-04-09T00:14:06;101379.22;;;4.78;100.00
38038;BME280;23843;51.320;12.340;2023-04-09T00:16:32;101387.09;;;4.79;100.00
38038;BME280;23843;51.320;12.340;2023-04-09T00:18:59;101388.88;;;4.77;100.00
38038;BME280;23843;51.320;12.340;2023-04-09T00:21:24;101396.00;;;4.67;100.00
38038;BME280;23843;51.320;12.340;2023-04-09T00:23:50;101393.47;;;4.61;100.00
38038;BME280;23843;51.320;12.340;2023-04-09T00:26:15;101393.53;;;4.57;100.00
38038;BME280;23843;51.320;12.340;2023-04-09T00:28:40;101397.94;;;4.53;100.00
38038;BME280;23843;51.320;12.340;2023-04-09T00:31:06;101394.44;;;4.51;100.00
38038;BME280;23843;51.320;12.340;2023-04-09T00:33:31;101388.41;;;4.46;100.00
38038;BME280;23843;51.320;12.340;2023-04-09T00:35:58;101393.69;;;4.41;100.00
38038;BME280;23843;51.320;12.340;2023-04-09T00:38:24;101392.88;;;4.36;100.00
38038;BME280;23843;51.320;12.340;2023-04-09T00:40:49;101393.78;;;4.34;100.00
38038;BME280;23843;51.320;12.340;2023-04-09T00:43:15;101391.22;;;4.31;100.00
38038;BME280;23843;51.320;12.340;2023-04-09T00:45:41;101396.47;;;4.29;100.00
38038;BME280;23843;51.320;12.340;2023-04-09T00:48:06;101396.50;;;4.26;100.00
38038;BME280;23843;51.320;12.340;2023-04-09T00:50:32;101397.41;;;4.25;100.00
38038;BME280;23843;51.320;12.340;2023-04-09T00:52:59;101395.66;;;4.25;100.00
38038;BME280;23843;51.320;12.340;2023-04-09T00:55:25;101398.25;;;4.25;100.00
38038;BME280;23843;51.320;12.340;2023-04-09T00:57:51;101395.66;;;4.25;100.00
38038;BME280;23843;51.320;12.340;2023-04-09T01:00:16;101396.50;;;4.27;100.00
38038;BME280;23843;51.320;12.340;2023-04-09T01:02:42;101400.84;;;4.30;100.00
38038;BME280;23843;51.320;12.340;2023-04-09T01:05:08;101406.03;;;4.32;100.00
38038;BME280;23843;51.320;12.340;2023-04-09T01:07:41;101394.75;;;4.28;100.00
38038;BME280;23843;51.320;12.340;2023-04-09T01:10:16;101403.50;;;4.27;100.00
38038;BME280;23843;51.320;12.340;2023-04-09T01:12:50;101398.25;;;4.25;100.00
38038;BME280;23843;51.320;12.340;2023-04-09T01:15:22;101395.66;;;4.24;100.00
38038;BME280;23843;51.320;12.340;2023-04-09T01:17:52;101402.66;;;4.25;100.00
38038;BME280;23843;51.320;12.340;2023-04-09T01:20:23;101411.34;;;4.28;100.00
38038;BME280;23843;51.320;12.340;2023-04-09T01:22:56;101402.63;;;4.26;100.00
38038;BME280;23843;51.320;12.340;2023-04-09T01:25:36;101402.66;;;4.23;100.00
38038;BME280;23843;51.320;12.340;2023-04-09T01:28:13;101397.41;;;4.23;100.00
38038;BME280;23843;51.320;12.340;2023-04-09T01:30:42;101402.66;;;4.23;100.00
38038;BME280;23843;51.320;12.340;2023-04-09T01:33:10;101399.16;;;4.23;100.00
38038;BME280;23843;51.320;12.340;2023-04-09T01:35:36;101394.78;;;4.23;100.00
38038;BME280;23843;51.320;12.340;2023-04-09T01:38:03;101397.38;;;4.26;100.00
38038;BME280;23843;51.320;12.340;2023-04-09T01:40:29;101398.22;;;4.28;100.00
38038;BME280;23843;51.320;12.340;2023-04-09T01:42:55;101393.91;;;4.24;100.00
38038;BME280;23843;51.320;12.340;2023-04-09T01:45:23;101392.22;;;4.20;100.00
38038;BME280;23843;51.320;12.340;2023-04-09T01:47:49;101397.50;;;4.17;100.00
38038;BME280;23843;51.320;12.340;2023-04-09T01:50:15;101398.41;;;4.13;100.00
38038;BME280;23843;51.320;12.340;2023-04-09T01:52:41;101391.41;;;4.14;100.00
38038;BME280;23843;51.320;12.340;2023-04-09T01:55:07;101393.16;;;4.13;100.00
38038;BME280;23843;51.320;12.340;2023-04-09T01:57:32;101394.00;;;4.15;100.00
38038;BME280;23843;51.320;12.340;2023-04-09T01:59:58;101386.19;;;4.12;100.00
38038;BME280;23843;51.320;12.340;2023-04-09T02:02:36;101387.97;;;4.08;100.00
38038;BME280;23843;51.320;12.340;2023-04-09T02:05:06;101395.88;;;4.05;100.00
38038;BME280;23843;51.320;12.340;2023-04-09T02:07:36;101392.38;;;4.02;100.00
38038;BME280;23843;51.320;12.340;2023-04-09T02:10:04;101398.53;;;4.01;100.00
38038;BME280;23843;51.320;12.340;2023-04-09T02:12:32;101395.06;;;3.97;100.00
38038;BME280;23843;51.320;12.340;2023-04-09T02:15:01;101401.25;;;3.93;100.00
38038;BME280;23843;51.320;12.340;2023-04-09T02:17:28;101399.50;;;3.91;100.00
38038;BME280;23843;51.320;12.340;2023-04-09T02:19:54;101392.56;;;3.88;100.00
38038;BME280;23843;51.320;12.340;2023-04-09T02:22:19;101398.69;;;3.84;100.00
38038;BME280;23843;51.320;12.340;2023-04-09T02:24:45;101394.34;;;3.81;100.00
38038;BME280;23843;51.320;12.340;2023-04-09T02:27:11;101391.78;;;3.77;100.00
38038;BME280;23843;51.320;12.340;2023-04-09T02:29:37;101392.66;;;3.76;100.00
38038;BME280;23843;51.320;12.340;2023-04-09T02:32:03;101397.03;;;3.75;100.00
38038;BME280;23843;51.320;12.340;2023-04-09T02:34:30;101396.19;;;3.72;100.00
38038;BME280;23843;51.320;12.340;2023-04-09T02:36:56;101399.72;;;3.68;100.00
38038;BME280;23843;51.320;12.340;2023-04-09T02:39:21;101405.00;;;3.66;100.00
38038;BME280;23843;51.320;12.340;2023-04-09T02:41:47;101402.34;;;3.68;100.00
38038;BME280;23843;51.320;12.340;2023-04-09T02:44:12;101403.19;;;3.68;100.00
38038;BME280;23843;51.320;12.340;2023-04-09T02:46:39;101400.63;;;3.65;100.00
38038;BME280;23843;51.320;12.340;2023-04-09T02:49:05;101405.00;;;3.66;100.00
38038;BME280;23843;51.320;12.340;2023-04-09T02:51:33;101413.69;;;3.68;100.00
38038;BME280;23843;51.320;12.340;2023-04-09T02:53:58;101410.31;;;3.57;100.00
38038;BME280;23843;51.320;12.340;2023-04-09T02:56:24;101413.84;;;3.51;100.00
38038;BME280;23843;51.320;12.340;2023-04-09T02:58:49;101406.84;;;3.50;100.00
38038;BME280;23843;51.320;12.340;2023-04-09T03:01:18;101416.53;;;3.40;100.00
38038;BME280;23843;51.320;12.340;2023-04-09T03:03:43;101409.56;;;3.38;100.00
38038;BME280;23843;51.320;12.340;2023-04-09T03:06:09;101407.84;;;3.34;100.00
38038;BME280;23843;51.320;12.340;2023-04-09T03:08:35;101410.50;;;3.31;100.00
38038;BME280;23843;51.320;12.340;2023-04-09T03:11:01;101409.63;;;3.29;100.00
38038;BME280;23843;51.320;12.340;2023-04-09T03:13:26;101406.16;;;3.27;100.00
38038;BME280;23843;51.320;12.340;2023-04-09T03:15:52;101406.16;;;3.27;100.00
38038;BME280;23843;51.320;12.340;2023-04-09T03:18:18;101402.69;;;3.25;100.00
38038;BME280;23843;51.320;12.340;2023-04-09T03:20:43;101403.56;;;3.25;100.00
38038;BME280;23843;51.320;12.340;2023-04-09T03:23:09;101400.97;;;3.20;100.00
38038;BME280;23843;51.320;12.340;2023-04-09T03:25:36;101400.97;;;3.20;100.00
38038;BME280;23843;51.320;12.340;2023-04-09T03:28:01;101400.09;;;3.20;100.00
38038;BME280;23843;51.320;12.340;2023-04-09T03:30:27;101406.22;;;3.20;100.00
38038;BME280;23843;51.320;12.340;2023-04-09T03:32:52;101401.84;;;3.21;100.00
38038;BME280;23843;51.320;12.340;2023-04-09T03:35:18;101404.44;;;3.22;100.00
38038;BME280;23843;51.320;12.340;2023-04-09T03:37:43;101399.19;;;3.26;100.00
38038;BME280;23843;51.320;12.340;2023-04-09T03:40:10;101406.22;;;3.14;100.00
38038;BME280;23843;51.320;12.340;2023-04-09T03:42:37;101403.69;;;3.10;100.00
38038;BME280;23843;51.320;12.340;2023-04-09T03:45:03;101401.09;;;3.05;100.00
38038;BME280;23843;51.320;12.340;2023-04-09T03:47:29;101403.66;;;3.08;100.00
38038;BME280;23843;51.320;12.340;2023-04-09T03:49:54;101401.88;;;3.12;100.00
38038;BME280;23843;51.320;12.340;2023-04-09T03:52:20;101407.13;;;3.12;100.00
38038;BME280;23843;51.320;12.340;2023-04-09T03:54:45;101404.53;;;3.10;100.00
38038;BME280;23843;51.320;12.340;2023-04-09T03:57:11;101405.41;;;3.05;100.00
38038;BME280;23843;51.320;12.340;2023-04-09T03:59:37;101407.22;;;3.01;100.00
38038;BME280;23843;51.320;12.340;2023-04-09T04:02:03;101402.84;;;2.97;100.00
38038;BME280;23843;51.320;12.340;2023-04-09T04:04:28;101402.03;;;2.93;100.00
38038;BME280;23843;51.320;12.340;2023-04-09T04:06:54;101406.38;;;2.91;100.00
38038;BME280;23843;51.320;12.340;2023-04-09T04:09:19;101407.28;;;2.87;100.00
38038;BME280;23843;51.320;12.340;2023-04-09T04:11:45;101410.78;;;2.85;100.00
38038;BME280;23843;51.320;12.340;2023-04-09T04:14:10;101411.66;;;2.85;100.00
38038;BME280;23843;51.320;12.340;2023-04-09T04:16:39;101398.59;;;2.82;100.00
38038;BME280;23843;51.320;12.340;2023-04-09T04:19:05;101409.06;;;2.82;100.00
38038;BME280;23843;51.320;12.340;2023-04-09T04:21:31;101409.06;;;2.77;100.00
38038;BME280;23843;51.320;12.340;2023-04-09T04:23:56;101411.72;;;2.74;100.00
38038;BME280;23843;51.320;12.340;2023-04-09T04:26:21;101422.19;;;2.74;100.00
38038;BME280;23843;51.320;12.340;2023-04-09T04:28:47;101427.41;;;2.73;100.00
38038;BME280;23843;51.320;12.340;2023-04-09T04:31:12;101420.44;;;2.72;100.00
38038;BME280;23843;51.320;12.340;2023-04-09T04:33:40;101424.81;;;2.70;100.00
38038;BME280;23843;51.320;12.340;2023-04-09T04:36:07;101424.81;;;2.70;100.00
38038;BME280;23843;51.320;12.340;2023-04-09T04:38:33;101425.69;;;2.72;100.00
38038;BME280;23843;51.320;12.340;2023-04-09T04:40:59;101422.19;;;2.73;100.00
38038;BME280;23843;51.320;12.340;2023-04-09T04:43:25;101419.56;;;2.73;100.00
38038;BME280;23843;51.320;12.340;2023-04-09T04:45:50;101423.94;;;2.72;100.00
38038;BME280;23843;51.320;12.340;2023-04-09T04:48:15;101426.53;;;2.74;100.00
38038;BME280;23843;51.320;12.340;2023-04-09T04:50:42;101427.38;;;2.77;100.00
38038;BME280;23843;51.320;12.340;2023-04-09T04:53:08;101432.59;;;2.82;100.00
38038;BME280;23843;51.320;12.340;2023-04-09T04:55:34;101430.84;;;2.86;100.00
38038;BME280;23843;51.320;12.340;2023-04-09T04:57:59;101432.59;;;2.84;100.00
38038;BME280;23843;51.320;12.340;2023-04-09T05:00:25;101423.84;;;2.89;100.00
38038;BME280;23843;51.320;12.340;2023-04-09T05:02:50;101437.78;;;2.94;100.00
38038;BME280;23843;51.320;12.340;2023-04-09T05:05:16;101436.03;;;2.98;100.00
38038;BME280;23843;51.320;12.340;2023-04-09T05:07:42;101428.97;;;3.05;100.00
38038;BME280;23843;51.320;12.340;2023-04-09T05:10:09;101429.81;;;3.13;100.00
38038;BME280;23843;51.320;12.340;2023-04-09T05:12:34;101434.97;;;3.24;100.00
38038;BME280;23843;51.320;12.340;2023-04-09T05:15:00;101439.28;;;3.35;100.00
38038;BME280;23843;51.320;12.340;2023-04-09T05:17:25;101439.13;;;3.55;100.00
38038;BME280;23843;51.320;12.340;2023-04-09T05:19:52;101435.53;;;3.65;100.00
38038;BME280;23843;51.320;12.340;2023-04-09T05:22:17;101429.38;;;3.74;100.00
38038;BME280;23843;51.320;12.340;2023-04-09T05:24:44;101430.97;;;3.88;100.00
38038;BME280;23843;51.320;12.340;2023-04-09T05:27:09;101445.59;;;4.15;100.00
38038;BME280;23843;51.320;12.340;2023-04-09T05:29:35;101429.25;;;4.68;100.00
38038;BME280;23843;51.320;12.340;2023-04-09T05:32:00;101433.28;;;5.54;100.00
38038;BME280;23843;51.320;12.340;2023-04-09T05:34:26;101430.28;;;5.76;100.00
38038;BME280;23843;51.320;12.340;2023-04-09T05:36:51;101434.22;;;6.92;100.00
38038;BME280;23843;51.320;12.340;2023-04-09T05:39:17;101431.09;;;7.88;100.00
38038;BME280;23843;51.320;12.340;2023-04-09T05:41:43;101439.31;;;8.74;100.00
38038;BME280;23843;51.320;12.340;2023-04-09T05:44:09;101436.47;;;9.38;92.10
38038;BME280;23843;51.320;12.340;2023-04-09T05:46:35;101448.88;;;9.64;87.63
38038;BME280;23843;51.320;12.340;2023-04-09T05:49:00;101451.91;;;9.24;88.66
38038;BME280;23843;51.320;12.340;2023-04-09T05:51:25;101453.25;;;9.92;92.22
38038;BME280;23843;51.320;12.340;2023-04-09T05:53:51;101456.41;;;10.53;80.92
38038;BME280;23843;51.320;12.340;2023-04-09T05:56:16;101449.97;;;10.60;76.96
38038;BME280;23843;51.320;12.340;2023-04-09T05:58:43;101456.50;;;11.44;73.57
38038;BME280;23843;51.320;12.340;2023-04-09T06:01:09;101454.38;;;11.74;74.68
38038;BME280;23843;51.320;12.340;2023-04-09T06:03:34;101455.13;;;11.34;79.10
38038;BME280;23843;51.320;12.340;2023-04-09T06:06:00;101453.44;;;12.59;76.78
38038;BME280;23843;51.320;12.340;2023-04-09T06:08:25;101457.88;;;13.17;65.97
38038;BME280;23843;51.320;12.340;2023-04-09T06:10:50;101447.97;;;13.57;60.28
38038;BME280;23843;51.320;12.340;2023-04-09T06:13:16;101448.09;;;13.90;55.73
38038;BME280;23843;51.320;12.340;2023-04-09T06:15:43;101435.78;;;14.22;51.84
38038;BME280;23843;51.320;12.340;2023-04-09T06:18:08;101450.38;;;13.80;57.08
38038;BME280;23843;51.320;12.340;2023-04-09T06:20:34;101445.63;;;14.88;53.59
38038;BME280;23843;51.320;12.340;2023-04-09T06:22:59;101431.06;;;15.57;55.23
38038;BME280;23843;51.320;12.340;2023-04-09T06:25:25;101440.94;;;16.32;48.47
38038;BME280;23843;51.320;12.340;2023-04-09T06:27:51;101445.25;;;16.77;45.91
38038;BME280;23843;51.320;12.340;2023-04-09T06:30:16;101441.94;;;17.02;41.98
38038;BME280;23843;51.320;12.340;2023-04-09T06:32:43;101437.13;;;15.91;43.74
38038;BME280;23843;51.320;12.340;2023-04-09T06:35:09;101438.19;;;16.62;47.10
38038;BME280;23843;51.320;12.340;2023-04-09T06:37:34;101446.09;;;17.21;41.05
38038;BME280;23843;51.320;12.340;2023-04-09T06:40:00;101443.03;;;17.54;40.50
38038;BME280;23843;51.320;12.340;2023-04-09T06:42:25;101438.69;;;17.93;44.29
38038;BME280;23843;51.320;12.340;2023-04-09T06:44:51;101437.25;;;18.78;42.59
38038;BME280;23843;51.320;12.340;2023-04-09T06:47:16;101436.00;;;19.69;48.27
38038;BME280;23843;51.320;12.340;2023-04-09T06:49:43;101442.88;;;19.12;38.27
38038;BME280;23843;51.320;12.340;2023-04-09T06:52:08;101444.91;;;19.70;36.89
38038;BME280;23843;51.320;12.340;2023-04-09T06:54:34;101449.53;;;19.67;37.59
38038;BME280;23843;51.320;12.340;2023-04-09T06:56:59;101455.69;;;20.05;36.50
38038;BME280;23843;51.320;12.340;2023-04-09T06:59:25;101458.03;;;20.09;34.42
38038;BME280;23843;51.320;12.340;2023-04-09T07:01:50;101456.84;;;20.25;34.01
38038;BME280;23843;51.320;12.340;2023-04-09T07:04:15;101461.44;;;19.15;36.29
38038;BME280;23843;51.320;12.340;2023-04-09T07:06:42;101467.66;;;20.47;35.72
38038;BME280;23843;51.320;12.340;2023-04-09T07:09:08;101468.13;;;21.54;32.63
38038;BME280;23843;51.320;12.340;2023-04-09T07:11:33;101479.81;;;21.21;32.31
38038;BME280;23843;51.320;12.340;2023-04-09T07:13:59;101476.16;;;21.10;32.51
38038;BME280;23843;51.320;12.340;2023-04-09T07:16:24;101486.66;;;21.13;36.76
38038;BME280;23843;51.320;12.340;2023-04-09T07:18:50;101481.44;;;19.96;33.87
38038;BME280;23843;51.320;12.340;2023-04-09T07:21:15;101480.34;;;19.27;34.60
38038;BME280;23843;51.320;12.340;2023-04-09T07:23:42;101485.97;;;18.34;38.50
38038;BME280;23843;51.320;12.340;2023-04-09T07:26:08;101484.06;;;19.37;37.43
38038;BME280;23843;51.320;12.340;2023-04-09T07:28:34;101485.03;;;20.55;33.51
38038;BME280;23843;51.320;12.340;2023-04-09T07:31:00;101477.34;;;21.40;36.11
38038;BME280;23843;51.320;12.340;2023-04-09T07:33:25;101470.72;;;22.72;38.26
38038;BME280;23843;51.320;12.340;2023-04-09T07:35:51;101475.16;;;22.10;30.43
38038;BME280;23843;51.320;12.340;2023-04-09T07:38:16;101480.53;;;21.11;32.31
38038;BME280;23843;51.320;12.340;2023-04-09T07:40:43;101471.78;;;19.70;33.99
38038;BME280;23843;51.320;12.340;2023-04-09T07:43:09;101479.88;;;18.83;35.80
38038;BME280;23843;51.320;12.340;2023-04-09T07:45:34;101474.78;;;19.17;36.61
38038;BME280;23843;51.320;12.340;2023-04-09T07:48:00;101474.03;;;20.58;39.43
38038;BME280;23843;51.320;12.340;2023-04-09T07:50:26;101476.75;;;22.33;35.80
38038;BME280;23843;51.320;12.340;2023-04-09T07:52:51;101472.97;;;22.97;34.33
38038;BME280;23843;51.320;12.340;2023-04-09T07:55:16;101467.53;;;23.28;29.12
38038;BME280;23843;51.320;12.340;2023-04-09T07:57:43;101473.28;;;22.21;29.86
38038;BME280;23843;51.320;12.340;2023-04-09T08:00:10;101470.03;;;23.00;34.88
38038;BME280;23843;51.320;12.340;2023-04-09T08:02:35;101469.06;;;23.11;28.91
38038;BME280;23843;51.320;12.340;2023-04-09T08:05:01;101477.78;;;22.94;29.05
38038;BME280;23843;51.320;12.340;2023-04-09T08:07:26;101471.81;;;23.31;28.15
38038;BME280;23843;51.320;12.340;2023-04-09T08:09:52;101467.09;;;23.92;32.08
38038;BME280;23843;51.320;12.340;2023-04-09T08:12:17;101475.72;;;24.25;27.70
38038;BME280;23843;51.320;12.340;2023-04-09T08:14:44;101480.28;;;24.34;30.81
38038;BME280;23843;51.320;12.340;2023-04-09T08:17:09;101464.91;;;24.25;27.07
38038;BME280;23843;51.320;12.340;2023-04-09T08:19:35;101474.56;;;23.60;28.42
38038;BME280;23843;51.320;12.340;2023-04-09T08:22:00;101483.78;;;22.97;28.54
38038;BME280;23843;51.320;12.340;2023-04-09T08:24:26;101474.91;;;23.26;28.00
38038;BME280;23843;51.320;12.340;2023-04-09T08:26:51;101476.97;;;24.50;29.62
38038;BME280;23843;51.320;12.340;2023-04-09T08:29:19;101480.38;;;24.62;25.39
38038;BME280;23843;51.320;12.340;2023-04-09T08:31:45;101477.28;;;22.79;27.38
38038;BME280;23843;51.320;12.340;2023-04-09T08:34:11;101478.44;;;22.55;28.85
38038;BME280;23843;51.320;12.340;2023-04-09T08:36:36;101475.94;;;22.94;27.11
38038;BME280;23843;51.320;12.340;2023-04-09T08:39:02;101484.13;;;22.52;29.17
38038;BME280;23843;51.320;12.340;2023-04-09T08:41:28;101479.13;;;23.59;28.10
38038;BME280;23843;51.320;12.340;2023-04-09T08:43:54;101475.88;;;24.14;26.99
38038;BME280;23843;51.320;12.340;2023-04-09T08:46:20;101478.38;;;25.02;30.17
38038;BME280;23843;51.320;12.340;2023-04-09T08:48:48;101469.06;;;25.59;26.51
38038;BME280;23843;51.320;12.340;2023-04-09T08:51:15;101471.03;;;25.22;24.99
38038;BME280;23843;51.320;12.340;2023-04-09T08:53:43;101475.00;;;24.23;25.27
38038;BME280;23843;51.320;12.340;2023-04-09T08:56:09;101473.59;;;24.29;26.02
38038;BME280;23843;51.320;12.340;2023-04-09T08:58:35;101470.13;;;24.66;25.83
38038;BME280;23843;51.320;12.340;2023-04-09T09:01:00;101462.44;;;24.42;25.91
38038;BME280;23843;51.320;12.340;2023-04-09T09:03:26;101473.91;;;23.97;25.10
38038;BME280;23843;51.320;12.340;2023-04-09T09:05:53;101468.03;;;23.72;25.91
38038;BME280;23843;51.320;12.340;2023-04-09T09:08:23;101453.22;;;23.57;25.65
38038;BME280;23843;51.320;12.340;2023-04-09T09:10:49;101448.16;;;23.23;25.86
38038;BME280;23843;51.320;12.340;2023-04-09T09:13:18;101446.03;;;23.17;26.60
38038;BME280;23843;51.320;12.340;2023-04-09T09:15:44;101439.97;;;24.31;29.85
38038;BME280;23843;51.320;12.340;2023-04-09T09:18:09;101426.00;;;25.92;27.94
38038;BME280;23843;51.320;12.340;2023-04-09T09:20:35;101427.59;;;27.32;29.55
38038;BME280;23843;51.320;12.340;2023-04-09T09:23:02;101430.38;;;28.14;29.04
38038;BME280;23843;51.320;12.340;2023-04-09T09:25:27;101434.56;;;29.44;28.91
38038;BME280;23843;51.320;12.340;2023-04-09T09:27:53;101425.28;;;29.77;20.74
38038;BME280;23843;51.320;12.340;2023-04-09T09:30:24;101425.41;;;29.06;22.19
38038;BME280;23843;51.320;12.340;2023-04-09T09:32:53;101424.78;;;28.79;26.29
38038;BME280;23843;51.320;12.340;2023-04-09T09:35:19;101419.72;;;29.70;24.65
38038;BME280;23843;51.320;12.340;2023-04-09T09:37:44;101415.38;;;30.37;22.10
38038;BME280;23843;51.320;12.340;2023-04-09T09:40:25;101422.56;;;29.77;22.99
38038;BME280;23843;51.320;12.340;2023-04-09T09:42:53;101418.63;;;30.17;23.05
38038;BME280;23843;51.320;12.340;2023-04-09T09:45:19;101410.50;;;30.09;22.92
38038;BME280;23843;51.320;12.340;2023-04-09T09:47:45;101408.03;;;29.99;23.07
38038;BME280;23843;51.320;12.340;2023-04-09T09:50:11;101420.31;;;29.34;23.00
38038;BME280;23843;51.320;12.340;2023-04-09T09:52:38;101417.13;;;28.03;23.17
38038;BME280;23843;51.320;12.340;2023-04-09T09:55:05;101421.00;;;26.58;22.12
38038;BME280;23843;51.320;12.340;2023-04-09T09:57:34;101421.31;;;24.75;24.37
38038;BME280;23843;51.320;12.340;2023-04-09T10:00:05;101430.56;;;24.16;25.87
38038;BME280;23843;51.320;12.340;2023-04-09T10:02:41;101426.91;;;23.78;26.29
38038;BME280;23843;51.320;12.340;2023-04-09T10:05:08;101426.53;;;22.73;26.56
38038;BME280;23843;51.320;12.340;2023-04-09T10:07:34;101427.28;;;21.91;28.00
38038;BME280;23843;51.320;12.340;2023-04-09T10:10:01;101424.88;;;20.67;29.01
38038;BME280;23843;51.320;12.340;2023-04-09T10:12:27;101416.50;;;20.36;29.71
38038;BME280;23843;51.320;12.340;2023-04-09T10:14:54;101420.53;;;20.19;30.64
38038;BME280;23843;51.320;12.340;2023-04-09T10:17:20;101412.66;;;20.16;30.55
38038;BME280;23843;51.320;12.340;2023-04-09T10:19:50;101416.69;;;20.10;31.07
38038;BME280;23843;51.320;12.340;2023-04-09T10:22:20;101407.88;;;20.08;30.67
38038;BME280;23843;51.320;12.340;2023-04-09T10:24:48;101410.53;;;19.86;31.42
38038;BME280;23843;51.320;12.340;2023-04-09T10:27:15;101417.34;;;18.94;32.51
38038;BME280;23843;51.320;12.340;2023-04-09T10:29:42;101411.78;;;18.07;33.71
38038;BME280;23843;51.320;12.340;2023-04-09T10:32:09;101412.16;;;17.48;34.23
38038;BME280;23843;51.320;12.340;2023-04-09T10:34:37;101413.28;;;17.31;35.24
38038;BME280;23843;51.320;12.340;2023-04-09T10:37:06;101407.34;;;17.26;34.57
38038;BME280;23843;51.320;12.340;2023-04-09T10:39:32;101413.44;;;17.55;34.35
38038;BME280;23843;51.320;12.340;2023-04-09T10:41:59;101408.78;;;17.72;34.97
38038;BME280;23843;51.320;12.340;2023-04-09T10:44:26;101400.31;;;17.92;34.10
38038;BME280;23843;51.320;12.340;2023-04-09T10:46:52;101401.56;;;17.87;33.45
38038;BME280;23843;51.320;12.340;2023-04-09T10:49:20;101395.28;;;17.73;33.57
38038;BME280;23843;51.320;12.340;2023-04-09T10:51:53;101398.81;;;17.74;33.99
38038;BME280;23843;51.320;12.340;2023-04-09T10:54:52;101394.44;;;17.73;33.37
38038;BME280;23843;51.320;12.340;2023-04-09T10:57:18;101391.28;;;17.53;34.55
38038;BME280;23843;51.320;12.340;2023-04-09T10:59:46;101390.06;;;17.45;34.84
38038;BME280;23843;51.320;12.340;2023-04-09T11:05:17;101390.28;;;17.42;34.12
38038;BME280;23843;51.320;12.340;2023-04-09T11:07:46;101389.41;;;17.41;34.51
38038;BME280;23843;51.320;12.340;2023-04-09T11:10:14;101384.38;;;17.37;34.51
38038;BME280;23843;51.320;12.340;2023-04-09T11:12:39;101375.28;;;17.39;34.13
38038;BME280;23843;51.320;12.340;2023-04-09T11:15:05;101374.91;;;17.31;34.39
38038;BME280;23843;51.320;12.340;2023-04-09T11:17:39;101378.94;;;17.24;34.08
38038;BME280;23843;51.320;12.340;2023-04-09T11:20:06;101382.41;;;17.11;34.70
38038;BME280;23843;51.320;12.340;2023-04-09T11:22:33;101372.13;;;17.05;34.34
38038;BME280;23843;51.320;12.340;2023-04-09T11:24:59;101377.69;;;17.02;34.68
38038;BME280;23843;51.320;12.340;2023-04-09T11:27:24;101382.47;;;16.97;34.74
38038;BME280;23843;51.320;12.340;2023-04-09T11:29:54;101378.94;;;16.82;34.04
38038;BME280;23843;51.320;12.340;2023-04-09T11:32:19;101382.09;;;16.75;34.73
38038;BME280;23843;51.320;12.340;2023-04-09T11:34:44;101383.16;;;16.58;34.65
38038;BME280;23843;51.320;12.340;2023-04-09T11:37:13;101383.63;;;16.50;34.71
38038;BME280;23843;51.320;12.340;2023-04-09T11:39:42;101382.22;;;16.44;34.48
38038;BME280;23843;51.320;12.340;2023-04-09T11:42:12;101379.81;;;16.40;35.30
38038;BME280;23843;51.320;12.340;2023-04-09T11:44:38;101374.69;;;16.37;34.88
38038;BME280;23843;51.320;12.340;2023-04-09T11:47:03;101381.06;;;16.34;34.98
38038;BME280;23843;51.320;12.340;2023-04-09T11:49:29;101381.16;;;16.18;34.76
38038;BME280;23843;51.320;12.340;2023-04-09T11:51:55;101375.69;;;16.05;35.39
38038;BME280;23843;51.320;12.340;2023-04-09T11:54:20;101369.78;;;16.00;34.59
38038;BME280;23843;51.320;12.340;2023-04-09T11:56:48;101371.75;;;15.97;34.69
38038;BME280;23843;51.320;12.340;2023-04-09T11:59:14;101363.13;;;15.77;35.05
38038;BME280;23843;51.320;12.340;2023-04-09T12:01:39;101374.31;;;15.54;35.64
38038;BME280;23843;51.320;12.340;2023-04-09T12:04:05;101373.16;;;15.58;35.88
38038;BME280;23843;51.320;12.340;2023-04-09T12:06:30;101370.91;;;15.66;35.94
38038;BME280;23843;51.320;12.340;2023-04-09T12:08:57;101363.66;;;15.68;35.94
38038;BME280;23843;51.320;12.340;2023-04-09T12:11:27;101372.72;;;15.66;36.29
38038;BME280;23843;51.320;12.340;2023-04-09T12:13:58;101369.53;;;15.59;36.00
38038;BME280;23843;51.320;12.340;2023-04-09T12:16:24;101370.66;;;15.55;35.82
38038;BME280;23843;51.320;12.340;2023-04-09T12:18:50;101365.50;;;15.52;36.17
38038;BME280;23843;51.320;12.340;2023-04-09T12:21:15;101355.69;;;15.52;36.55
38038;BME280;23843;51.320;12.340;2023-04-09T12:23:40;101362.06;;;15.50;36.58
38038;BME280;23843;51.320;12.340;2023-04-09T12:26:06;101364.94;;;15.47;35.72
38038;BME280;23843;51.320;12.340;2023-04-09T12:28:31;101366.50;;;15.35;36.09
38038;BME280;23843;51.320;12.340;2023-04-09T12:30:59;101367.06;;;15.10;36.66
38038;BME280;23843;51.320;12.340;2023-04-09T12:33:24;101368.34;;;15.03;36.82
38038;BME280;23843;51.320;12.340;2023-04-09T12:35:50;101357.25;;;14.79;37.33
38038;BME280;23843;51.320;12.340;2023-04-09T12:38:15;101357.81;;;14.68;37.62
38038;BME280;23843;51.320;12.340;2023-04-09T12:40:41;101359.88;;;14.63;38.02